Weather at Herb's Travel Plaza Airstrip [CLOSED]

Public forecast

Using degrees Celsius for public forecast. Weather courtesy of forecast.io.

Closest aviation weather report (METAR) to Herb's Travel Plaza Airstrip

Closest report is Montreal International (Mirabel) Airport, 29.7 nm (55.0 km) ENE. Retrieved 2021/01/27 02:00 UTC (1 hour ago):

CYMX 270200Z 05008G15KT 010V080 3SM -SN VV016 M07/M09 A2995 RMK SN8 SLP150

Closest aviation forecast (TAF) to Herb's Travel Plaza Airstrip

Closest forecast is Montreal International (Mirabel) Airport, 29.7 nm (55.0 km) ENE. Retrieved 2021-01-27 00:00 UTC (3 hours ago):

TAF CYMX 262340Z 2700/2724 07005KT P6SM BKN040 OVC110 TEMPO 2700/2701 11/2SM -SN BKN020 OVC040 PROB30 2700/2701 3/4SM -SHSN VV009 FM270100 05010G20KT 1SM -SN VV009 TEMPO 2701/2707 3SM -SN OVC015 PROB30 2701/2705 3/4SM -SHSN VV006 FM270700 05008KT 21/2SM -SN BKN009 OVC012 FM270900 04006KT 3SM -SN OVC015 FM271200 03005KT P6SM BKN015 OVC025 PROB30 2715/2718 3SM -FZDZ BR FM271800 25005KT P6SM SCT015 OVC030 RMK NXT FCST BY 270600Z